sensor_id;sensor_type;location;lat;lon;timestamp;temperature;humidity
8595;DHT22;4335;48.860;9.198;2023-08-17T00:01:54;21.20;99.90
8595;DHT22;4335;48.860;9.198;2023-08-17T00:04:22;21.20;99.90
8595;DHT22;4335;48.860;9.198;2023-08-17T00:06:59;21.20;99.90
8595;DHT22;4335;48.860;9.198;2023-08-17T00:09:27;21.20;99.90
8595;DHT22;4335;48.860;9.198;2023-08-17T00:11:59;21.20;99.90
8595;DHT22;4335;48.860;9.198;2023-08-17T00:14:32;21.20;99.90
8595;DHT22;4335;48.860;9.198;2023-08-17T00:17:06;21.20;99.90
8595;DHT22;4335;48.860;9.198;2023-08-17T00:19:39;21.10;99.90
8595;DHT22;4335;48.860;9.198;2023-08-17T00:22:10;21.10;99.90
8595;DHT22;4335;48.860;9.198;2023-08-17T00:24:40;21.10;99.90
8595;DHT22;4335;48.860;9.198;2023-08-17T00:27:11;21.10;99.90
8595;DHT22;4335;48.860;9.198;2023-08-17T00:29:41;21.10;99.90
8595;DHT22;4335;48.860;9.198;2023-08-17T00:32:09;21.00;99.90
8595;DHT22;4335;48.860;9.198;2023-08-17T00:34:36;21.10;99.90
8595;DHT22;4335;48.860;9.198;2023-08-17T00:37:09;21.10;99.90
8595;DHT22;4335;48.860;9.198;2023-08-17T00:39:37;21.00;99.90
8595;DHT22;4335;48.860;9.198;2023-08-17T00:42:04;21.10;99.90
8595;DHT22;4335;48.860;9.198;2023-08-17T00:44:35;21.00;99.90
8595;DHT22;4335;48.860;9.198;2023-08-17T00:47:02;21.00;99.90
8595;DHT22;4335;48.860;9.198;2023-08-17T00:49:30;21.00;99.90
8595;DHT22;4335;48.860;9.198;2023-08-17T00:52:04;21.00;99.90
8595;DHT22;4335;48.860;9.198;2023-08-17T00:54:32;21.00;99.90
8595;DHT22;4335;48.860;9.198;2023-08-17T00:57:00;20.90;99.90
8595;DHT22;4335;48.860;9.198;2023-08-17T00:59:32;20.90;99.90
8595;DHT22;4335;48.860;9.198;2023-08-17T01:02:05;21.00;99.90
8595;DHT22;4335;48.860;9.198;2023-08-17T01:04:32;21.00;99.90
8595;DHT22;4335;48.860;9.198;2023-08-17T01:07:00;21.00;99.90
8595;DHT22;4335;48.860;9.198;2023-08-17T01:09:30;21.00;99.90
8595;DHT22;4335;48.860;9.198;2023-08-17T01:12:04;21.10;99.90
8595;DHT22;4335;48.860;9.198;2023-08-17T01:14:39;21.00;99.90
8595;DHT22;4335;48.860;9.198;2023-08-17T01:17:17;21.10;99.90
8595;DHT22;4335;48.860;9.198;2023-08-17T01:19:46;21.10;99.90
8595;DHT22;4335;48.860;9.198;2023-08-17T01:22:17;21.10;99.90
8595;DHT22;4335;48.860;9.198;2023-08-17T01:24:56;21.10;99.90
8595;DHT22;4335;48.860;9.198;2023-08-17T01:27:36;21.20;99.90
8595;DHT22;4335;48.860;9.198;2023-08-17T01:30:04;21.20;99.90
8595;DHT22;4335;48.860;9.198;2023-08-17T01:32:37;21.20;99.90
8595;DHT22;4335;48.860;9.198;2023-08-17T01:35:11;21.20;99.90
8595;DHT22;4335;48.860;9.198;2023-08-17T01:37:44;21.30;99.90
8595;DHT22;4335;48.860;9.198;2023-08-17T01:40:13;21.30;99.90
8595;DHT22;4335;48.860;9.198;2023-08-17T01:42:44;21.30;99.90
8595;DHT22;4335;48.860;9.198;2023-08-17T01:45:16;21.30;99.90
8595;DHT22;4335;48.860;9.198;2023-08-17T01:47:44;21.30;99.90
8595;DHT22;4335;48.860;9.198;2023-08-17T01:50:11;21.20;99.90
8595;DHT22;4335;48.860;9.198;2023-08-17T01:52:38;21.20;99.90
8595;DHT22;4335;48.860;9.198;2023-08-17T01:55:06;21.20;99.90
8595;DHT22;4335;48.860;9.198;2023-08-17T01:57:35;21.20;99.90
8595;DHT22;4335;48.860;9.198;2023-08-17T02:00:03;21.20;99.90
8595;DHT22;4335;48.860;9.198;2023-08-17T02:02:38;21.20;99.90
8595;DHT22;4335;48.860;9.198;2023-08-17T02:05:06;21.20;99.90
8595;DHT22;4335;48.860;9.198;2023-08-17T02:07:33;21.10;99.90
8595;DHT22;4335;48.860;9.198;2023-08-17T02:10:13;21.20;99.90
8595;DHT22;4335;48.860;9.198;2023-08-17T02:12:41;21.20;99.90
8595;DHT22;4335;48.860;9.198;2023-08-17T02:15:09;21.20;99.90
8595;DHT22;4335;48.860;9.198;2023-08-17T02:17:49;21.20;99.90
8595;DHT22;4335;48.860;9.198;2023-08-17T02:20:26;21.20;99.90
8595;DHT22;4335;48.860;9.198;2023-08-17T02:22:56;21.20;99.90
8595;DHT22;4335;48.860;9.198;2023-08-17T02:25:23;21.20;99.90
8595;DHT22;4335;48.860;9.198;2023-08-17T02:27:55;21.20;99.90
8595;DHT22;4335;48.860;9.198;2023-08-17T02:30:23;21.20;99.90
8595;DHT22;4335;48.860;9.198;2023-08-17T02:32:53;21.20;99.90
8595;DHT22;4335;48.860;9.198;2023-08-17T02:35:23;21.20;99.90
8595;DHT22;4335;48.860;9.198;2023-08-17T02:37:51;21.20;99.90
8595;DHT22;4335;48.860;9.198;2023-08-17T02:40:18;21.20;99.90
8595;DHT22;4335;48.860;9.198;2023-08-17T02:42:45;21.20;99.90
8595;DHT22;4335;48.860;9.198;2023-08-17T02:45:14;21.20;99.90
8595;DHT22;4335;48.860;9.198;2023-08-17T02:47:42;21.20;99.90
8595;DHT22;4335;48.860;9.198;2023-08-17T02:50:11;21.20;99.90
8595;DHT22;4335;48.860;9.198;2023-08-17T02:52:39;21.20;99.90
8595;DHT22;4335;48.860;9.198;2023-08-17T02:55:07;21.20;99.90
8595;DHT22;4335;48.860;9.198;2023-08-17T02:57:39;21.30;99.90
8595;DHT22;4335;48.860;9.198;2023-08-17T03:00:12;21.30;99.90
8595;DHT22;4335;48.860;9.198;2023-08-17T03:02:44;21.20;99.90
8595;DHT22;4335;48.860;9.198;2023-08-17T03:05:18;21.30;99.90
8595;DHT22;4335;48.860;9.198;2023-08-17T03:07:45;21.20;99.90
8595;DHT22;4335;48.860;9.198;2023-08-17T03:10:18;21.30;99.90
8595;DHT22;4335;48.860;9.198;2023-08-17T03:12:45;21.20;99.90
8595;DHT22;4335;48.860;9.198;2023-08-17T03:15:13;21.30;99.90
8595;DHT22;4335;48.860;9.198;2023-08-17T03:17:44;21.30;99.90
8595;DHT22;4335;48.860;9.198;2023-08-17T03:20:18;21.30;99.90
8595;DHT22;4335;48.860;9.198;2023-08-17T03:22:48;21.30;99.90
8595;DHT22;4335;48.860;9.198;2023-08-17T03:25:15;21.20;99.90
8595;DHT22;4335;48.860;9.198;2023-08-17T03:27:47;21.20;99.90
8595;DHT22;4335;48.860;9.198;2023-08-17T03:30:23;21.20;99.90
8595;DHT22;4335;48.860;9.198;2023-08-17T03:32:58;21.20;99.90
8595;DHT22;4335;48.860;9.198;2023-08-17T03:35:28;21.10;99.90
8595;DHT22;4335;48.860;9.198;2023-08-17T03:37:55;21.10;99.90
8595;DHT22;4335;48.860;9.198;2023-08-17T03:40:23;21.20;99.90
8595;DHT22;4335;48.860;9.198;2023-08-17T03:42:56;21.20;99.90
8595;DHT22;4335;48.860;9.198;2023-08-17T03:45:26;21.20;99.90
8595;DHT22;4335;48.860;9.198;2023-08-17T03:47:58;21.20;99.90
8595;DHT22;4335;48.860;9.198;2023-08-17T03:50:33;21.20;99.90
8595;DHT22;4335;48.860;9.198;2023-08-17T03:53:01;21.20;99.90
8595;DHT22;4335;48.860;9.198;2023-08-17T03:55:28;21.20;99.90
8595;DHT22;4335;48.860;9.198;2023-08-17T03:57:56;21.20;99.90
8595;DHT22;4335;48.860;9.198;2023-08-17T04:00:23;21.20;99.90
8595;DHT22;4335;48.860;9.198;2023-08-17T04:02:50;21.20;99.90
8595;DHT22;4335;48.860;9.198;2023-08-17T04:05:22;21.20;99.90
8595;DHT22;4335;48.860;9.198;2023-08-17T04:07:50;21.20;99.90
8595;DHT22;4335;48.860;9.198;2023-08-17T04:10:17;21.10;99.90
8595;DHT22;4335;48.860;9.198;2023-08-17T04:12:44;21.10;99.90
8595;DHT22;4335;48.860;9.198;2023-08-17T04:15:18;21.10;99.90
8595;DHT22;4335;48.860;9.198;2023-08-17T04:17:45;21.10;99.90
8595;DHT22;4335;48.860;9.198;2023-08-17T04:20:12;21.10;99.90
8595;DHT22;4335;48.860;9.198;2023-08-17T04:22:59;21.20;99.90
8595;DHT22;4335;48.860;9.198;2023-08-17T04:25:27;21.10;99.90
8595;DHT22;4335;48.860;9.198;2023-08-17T04:27:57;21.10;99.90
8595;DHT22;4335;48.860;9.198;2023-08-17T04:30:24;21.10;99.90
8595;DHT22;4335;48.860;9.198;2023-08-17T04:32:58;21.10;99.90
8595;DHT22;4335;48.860;9.198;2023-08-17T04:35:25;21.10;99.90
8595;DHT22;4335;48.860;9.198;2023-08-17T04:37:55;21.20;99.90
8595;DHT22;4335;48.860;9.198;2023-08-17T04:40:24;21.20;99.90
8595;DHT22;4335;48.860;9.198;2023-08-17T04:43:10;21.20;99.90
8595;DHT22;4335;48.860;9.198;2023-08-17T04:45:41;21.20;99.90
8595;DHT22;4335;48.860;9.198;2023-08-17T04:48:08;21.20;99.90
8595;DHT22;4335;48.860;9.198;2023-08-17T04:50:42;21.20;99.90
8595;DHT22;4335;48.860;9.198;2023-08-17T04:53:12;21.20;99.90
8595;DHT22;4335;48.860;9.198;2023-08-17T04:55:46;21.20;99.90
8595;DHT22;4335;48.860;9.198;2023-08-17T04:58:17;21.20;99.90
8595;DHT22;4335;48.860;9.198;2023-08-17T05:00:47;21.20;99.90
8595;DHT22;4335;48.860;9.198;2023-08-17T05:03:14;21.20;99.90
8595;DHT22;4335;48.860;9.198;2023-08-17T05:05:42;21.20;99.90
8595;DHT22;4335;48.860;9.198;2023-08-17T05:08:16;21.20;99.90
8595;DHT22;4335;48.860;9.198;2023-08-17T05:10:45;21.30;99.90
8595;DHT22;4335;48.860;9.198;2023-08-17T05:13:12;21.30;99.90
8595;DHT22;4335;48.860;9.198;2023-08-17T05:15:39;21.30;99.90
8595;DHT22;4335;48.860;9.198;2023-08-17T05:18:08;21.30;99.90
8595;DHT22;4335;48.860;9.198;2023-08-17T05:20:35;21.30;99.90
8595;DHT22;4335;48.860;9.198;2023-08-17T05:23:05;21.40;99.90
8595;DHT22;4335;48.860;9.198;2023-08-17T05:25:33;21.40;99.90
8595;DHT22;4335;48.860;9.198;2023-08-17T05:28:10;21.40;99.90
8595;DHT22;4335;48.860;9.198;2023-08-17T05:30:43;21.40;99.90
8595;DHT22;4335;48.860;9.198;2023-08-17T05:33:10;21.50;99.90
8595;DHT22;4335;48.860;9.198;2023-08-17T05:35:38;21.50;99.90
8595;DHT22;4335;48.860;9.198;2023-08-17T05:38:05;21.50;99.90
8595;DHT22;4335;48.860;9.198;2023-08-17T05:40:33;21.50;99.90
8595;DHT22;4335;48.860;9.198;2023-08-17T05:43:01;21.60;99.90
8595;DHT22;4335;48.860;9.198;2023-08-17T05:45:29;21.60;99.90
8595;DHT22;4335;48.860;9.198;2023-08-17T05:47:59;21.70;99.90
8595;DHT22;4335;48.860;9.198;2023-08-17T05:50:27;21.70;99.90
8595;DHT22;4335;48.860;9.198;2023-08-17T05:52:58;21.80;99.90
8595;DHT22;4335;48.860;9.198;2023-08-17T05:55:25;21.90;99.90
8595;DHT22;4335;48.860;9.198;2023-08-17T05:57:52;21.90;99.90
8595;DHT22;4335;48.860;9.198;2023-08-17T06:00:24;22.10;99.90
8595;DHT22;4335;48.860;9.198;2023-08-17T06:02:52;22.10;99.90
8595;DHT22;4335;48.860;9.198;2023-08-17T06:05:23;22.20;99.90
8595;DHT22;4335;48.860;9.198;2023-08-17T06:07:55;22.10;99.90
8595;DHT22;4335;48.860;9.198;2023-08-17T06:10:23;22.20;99.90
8595;DHT22;4335;48.860;9.198;2023-08-17T06:12:52;22.20;99.90
8595;DHT22;4335;48.860;9.198;2023-08-17T06:15:23;22.30;99.90
8595;DHT22;4335;48.860;9.198;2023-08-17T06:17:54;22.30;99.90
8595;DHT22;4335;48.860;9.198;2023-08-17T06:20:21;22.30;99.90
8595;DHT22;4335;48.860;9.198;2023-08-17T06:22:55;22.30;99.90
8595;DHT22;4335;48.860;9.198;2023-08-17T06:25:23;22.30;99.90
8595;DHT22;4335;48.860;9.198;2023-08-17T06:27:51;22.40;99.90
8595;DHT22;4335;48.860;9.198;2023-08-17T06:30:19;22.50;99.90
8595;DHT22;4335;48.860;9.198;2023-08-17T06:32:48;22.60;99.90
8595;DHT22;4335;48.860;9.198;2023-08-17T06:35:20;22.70;99.90
8595;DHT22;4335;48.860;9.198;2023-08-17T06:37:56;22.90;99.90
8595;DHT22;4335;48.860;9.198;2023-08-17T06:40:24;23.00;99.90
8595;DHT22;4335;48.860;9.198;2023-08-17T06:42:54;23.00;99.90
8595;DHT22;4335;48.860;9.198;2023-08-17T06:45:24;23.00;99.90
8595;DHT22;4335;48.860;9.198;2023-08-17T06:47:59;23.10;99.90
8595;DHT22;4335;48.860;9.198;2023-08-17T06:50:26;23.30;99.90
8595;DHT22;4335;48.860;9.198;2023-08-17T06:52:54;23.40;99.90
8595;DHT22;4335;48.860;9.198;2023-08-17T06:55:24;23.40;99.90
8595;DHT22;4335;48.860;9.198;2023-08-17T06:57:55;23.50;99.90
8595;DHT22;4335;48.860;9.198;2023-08-17T07:00:22;23.50;99.90
8595;DHT22;4335;48.860;9.198;2023-08-17T07:02:50;23.50;99.90
8595;DHT22;4335;48.860;9.198;2023-08-17T07:05:19;23.50;99.90
8595;DHT22;4335;48.860;9.198;2023-08-17T07:07:47;23.60;99.90
8595;DHT22;4335;48.860;9.198;2023-08-17T07:10:14;23.60;99.90
8595;DHT22;4335;48.860;9.198;2023-08-17T07:12:45;23.80;99.90
8595;DHT22;4335;48.860;9.198;2023-08-17T07:15:18;23.90;99.90
8595;DHT22;4335;48.860;9.198;2023-08-17T07:17:49;23.90;99.90
8595;DHT22;4335;48.860;9.198;2023-08-17T07:20:16;24.10;99.90
8595;DHT22;4335;48.860;9.198;2023-08-17T07:22:45;24.30;99.90
8595;DHT22;4335;48.860;9.198;2023-08-17T07:25:12;24.60;99.90
8595;DHT22;4335;48.860;9.198;2023-08-17T07:27:40;25.00;99.90
8595;DHT22;4335;48.860;9.198;2023-08-17T07:30:11;25.60;99.90
8595;DHT22;4335;48.860;9.198;2023-08-17T07:32:44;26.90;99.90
8595;DHT22;4335;48.860;9.198;2023-08-17T07:35:15;27.90;99.90
8595;DHT22;4335;48.860;9.198;2023-08-17T07:37:42;28.70;99.90
8595;DHT22;4335;48.860;9.198;2023-08-17T07:40:12;29.00;99.90
8595;DHT22;4335;48.860;9.198;2023-08-17T07:42:39;29.00;99.90
8595;DHT22;4335;48.860;9.198;2023-08-17T07:45:10;28.60;99.90
8595;DHT22;4335;48.860;9.198;2023-08-17T07:47:40;28.00;99.90
8595;DHT22;4335;48.860;9.198;2023-08-17T07:50:08;27.80;99.90
8595;DHT22;4335;48.860;9.198;2023-08-17T07:52:36;27.60;99.90
8595;DHT22;4335;48.860;9.198;2023-08-17T07:55:06;27.40;99.90
8595;DHT22;4335;48.860;9.198;2023-08-17T07:57:35;27.20;99.90
8595;DHT22;4335;48.860;9.198;2023-08-17T08:00:04;27.00;99.90
8595;DHT22;4335;48.860;9.198;2023-08-17T08:02:31;26.80;99.90
8595;DHT22;4335;48.860;9.198;2023-08-17T08:04:59;27.00;99.90
8595;DHT22;4335;48.860;9.198;2023-08-17T08:07:26;27.70;99.90
8595;DHT22;4335;48.860;9.198;2023-08-17T08:09:53;28.90;99.90
8595;DHT22;4335;48.860;9.198;2023-08-17T08:12:23;30.10;99.90
8595;DHT22;4335;48.860;9.198;2023-08-17T08:14:58;31.20;99.90
8595;DHT22;4335;48.860;9.198;2023-08-17T08:17:28;32.20;99.90
8595;DHT22;4335;48.860;9.198;2023-08-17T08:19:56;32.60;99.90
8595;DHT22;4335;48.860;9.198;2023-08-17T08:22:24;33.00;99.90
8595;DHT22;4335;48.860;9.198;2023-08-17T08:25:06;33.50;99.90
8595;DHT22;4335;48.860;9.198;2023-08-17T08:27:42;33.50;99.90
8595;DHT22;4335;48.860;9.198;2023-08-17T08:30:14;33.60;99.90
8595;DHT22;4335;48.860;9.198;2023-08-17T08:32:41;33.70;99.90
8595;DHT22;4335;48.860;9.198;2023-08-17T08:35:08;33.60;99.90
8595;DHT22;4335;48.860;9.198;2023-08-17T08:37:36;33.50;99.90
8595;DHT22;4335;48.860;9.198;2023-08-17T08:40:12;33.10;99.90
8595;DHT22;4335;48.860;9.198;2023-08-17T08:42:41;32.40;99.90
8595;DHT22;4335;48.860;9.198;2023-08-17T08:45:09;32.30;99.90
8595;DHT22;4335;48.860;9.198;2023-08-17T08:47:38;32.80;99.90
8595;DHT22;4335;48.860;9.198;2023-08-17T08:50:09;33.20;99.90
8595;DHT22;4335;48.860;9.198;2023-08-17T08:52:43;33.50;99.90
8595;DHT22;4335;48.860;9.198;2023-08-17T08:55:15;34.60;99.90
8595;DHT22;4335;48.860;9.198;2023-08-17T08:57:46;34.90;99.90
8595;DHT22;4335;48.860;9.198;2023-08-17T09:00:17;35.60;99.90
8595;DHT22;4335;48.860;9.198;2023-08-17T09:02:48;36.20;99.90
8595;DHT22;4335;48.860;9.198;2023-08-17T09:05:20;37.30;98.40
8595;DHT22;4335;48.860;9.198;2023-08-17T09:07:48;37.50;96.20
8595;DHT22;4335;48.860;9.198;2023-08-17T09:10:16;38.10;94.70
8595;DHT22;4335;48.860;9.198;2023-08-17T09:12:45;38.10;93.20
8595;DHT22;4335;48.860;9.198;2023-08-17T09:15:13;37.60;93.00
8595;DHT22;4335;48.860;9.198;2023-08-17T09:17:40;37.40;93.40
8595;DHT22;4335;48.860;9.198;2023-08-17T09:20:11;37.40;93.10
8595;DHT22;4335;48.860;9.198;2023-08-17T09:22:39;37.70;92.70
8595;DHT22;4335;48.860;9.198;2023-08-17T09:25:10;37.50;92.50
8595;DHT22;4335;48.860;9.198;2023-08-17T09:27:41;37.50;92.30
8595;DHT22;4335;48.860;9.198;2023-08-17T09:30:10;37.40;92.40
8595;DHT22;4335;48.860;9.198;2023-08-17T09:32:37;37.00;92.50
8595;DHT22;4335;48.860;9.198;2023-08-17T09:35:06;37.00;93.20
8595;DHT22;4335;48.860;9.198;2023-08-17T09:37:35;37.70;92.60
8595;DHT22;4335;48.860;9.198;2023-08-17T09:40:03;37.00;92.80
8595;DHT22;4335;48.860;9.198;2023-08-17T09:42:34;37.50;92.00
8595;DHT22;4335;48.860;9.198;2023-08-17T09:45:03;37.60;91.70
8595;DHT22;4335;48.860;9.198;2023-08-17T09:47:30;38.00;90.60
8595;DHT22;4335;48.860;9.198;2023-08-17T09:50:01;38.20;90.90
8595;DHT22;4335;48.860;9.198;2023-08-17T09:52:32;38.40;89.00
8595;DHT22;4335;48.860;9.198;2023-08-17T09:55:02;38.20;88.60
8595;DHT22;4335;48.860;9.198;2023-08-17T09:57:30;38.60;87.50
8595;DHT22;4335;48.860;9.198;2023-08-17T09:59:58;39.50;85.70
8595;DHT22;4335;48.860;9.198;2023-08-17T10:02:26;39.60;84.30
8595;DHT22;4335;48.860;9.198;2023-08-17T10:04:58;40.00;83.60
8595;DHT22;4335;48.860;9.198;2023-08-17T10:07:29;40.70;82.20
8595;DHT22;4335;48.860;9.198;2023-08-17T10:10:04;41.00;80.20
8595;DHT22;4335;48.860;9.198;2023-08-17T10:12:36;41.70;78.30
8595;DHT22;4335;48.860;9.198;2023-08-17T10:15:08;42.40;76.00
8595;DHT22;4335;48.860;9.198;2023-08-17T10:17:53;42.80;72.90
8595;DHT22;4335;48.860;9.198;2023-08-17T10:20:23;42.90;70.90
8595;DHT22;4335;48.860;9.198;2023-08-17T10:22:59;42.90;71.20
8595;DHT22;4335;48.860;9.198;2023-08-17T10:25:34;42.50;71.20
8595;DHT22;4335;48.860;9.198;2023-08-17T10:28:03;42.80;69.90
8595;DHT22;4335;48.860;9.198;2023-08-17T10:30:34;43.10;69.30
8595;DHT22;4335;48.860;9.198;2023-08-17T10:33:05;42.30;68.90
8595;DHT22;4335;48.860;9.198;2023-08-17T10:35:34;42.30;69.30
8595;DHT22;4335;48.860;9.198;2023-08-17T10:38:03;41.90;68.40
8595;DHT22;4335;48.860;9.198;2023-08-17T10:40:37;40.60;70.90
8595;DHT22;4335;48.860;9.198;2023-08-17T10:43:05;39.30;73.50
8595;DHT22;4335;48.860;9.198;2023-08-17T10:45:33;37.80;77.20
8595;DHT22;4335;48.860;9.198;2023-08-17T10:48:33;36.90;81.00
8595;DHT22;4335;48.860;9.198;2023-08-17T10:51:04;35.50;85.20
8595;DHT22;4335;48.860;9.198;2023-08-17T10:53:37;34.10;90.60
8595;DHT22;4335;48.860;9.198;2023-08-17T10:56:12;32.80;93.90
8595;DHT22;4335;48.860;9.198;2023-08-17T10:58:43;32.70;96.10
8595;DHT22;4335;48.860;9.198;2023-08-17T11:01:11;32.60;97.70
8595;DHT22;4335;48.860;9.198;2023-08-17T11:03:42;32.30;98.90
8595;DHT22;4335;48.860;9.198;2023-08-17T11:06:28;31.90;99.90
8595;DHT22;4335;48.860;9.198;2023-08-17T11:08:58;31.50;99.90
8595;DHT22;4335;48.860;9.198;2023-08-17T11:11:31;31.30;99.90
8595;DHT22;4335;48.860;9.198;2023-08-17T11:14:02;30.70;99.90
8595;DHT22;4335;48.860;9.198;2023-08-17T11:16:29;30.40;99.90
8595;DHT22;4335;48.860;9.198;2023-08-17T11:18:56;30.30;99.90
8595;DHT22;4335;48.860;9.198;2023-08-17T11:21:28;30.20;99.90
8595;DHT22;4335;48.860;9.198;2023-08-17T11:23:57;29.90;99.90
8595;DHT22;4335;48.860;9.198;2023-08-17T11:26:26;29.80;99.90
8595;DHT22;4335;48.860;9.198;2023-08-17T11:28:56;29.70;99.90
8595;DHT22;4335;48.860;9.198;2023-08-17T11:31:24;29.70;99.90
8595;DHT22;4335;48.860;9.198;2023-08-17T11:33:59;29.70;99.90
8595;DHT22;4335;48.860;9.198;2023-08-17T11:36:27;29.70;99.90
8595;DHT22;4335;48.860;9.198;2023-08-17T11:38:54;29.60;99.90
8595;DHT22;4335;48.860;9.198;2023-08-17T11:41:21;29.60;99.90
8595;DHT22;4335;48.860;9.198;2023-08-17T11:43:53;29.60;99.90
8595;DHT22;4335;48.860;9.198;2023-08-17T11:46:21;29.60;99.90
8595;DHT22;4335;48.860;9.198;2023-08-17T11:48:50;29.60;99.90
8595;DHT22;4335;48.860;9.198;2023-08-17T11:51:28;29.60;99.90
8595;DHT22;4335;48.860;9.198;2023-08-17T11:53:59;29.60;99.90
8595;DHT22;4335;48.860;9.198;2023-08-17T11:56:29;29.50;99.90
8595;DHT22;4335;48.860;9.198;2023-08-17T11:58:58;29.40;99.90
8595;DHT22;4335;48.860;9.198;2023-08-17T12:01:32;29.40;99.90
8595;DHT22;4335;48.860;9.198;2023-08-17T12:04:06;29.40;99.90
8595;DHT22;4335;48.860;9.198;2023-08-17T12:06:34;29.30;99.90
8595;DHT22;4335;48.860;9.198;2023-08-17T12:09:04;29.40;99.90
8595;DHT22;4335;48.860;9.198;2023-08-17T12:11:35;29.30;99.90
8595;DHT22;4335;48.860;9.198;2023-08-17T12:14:12;29.40;99.90
8595;DHT22;4335;48.860;9.198;2023-08-17T12:16:46;29.40;99.90
8595;DHT22;4335;48.860;9.198;2023-08-17T12:19:25;29.50;99.90
8595;DHT22;4335;48.860;9.198;2023-08-17T12:21:52;29.50;99.90
8595;DHT22;4335;48.860;9.198;2023-08-17T12:24:24;29.60;99.90
8595;DHT22;4335;48.860;9.198;2023-08-17T12:26:51;29.70;99.90
8595;DHT22;4335;48.860;9.198;2023-08-17T12:29:21;29.70;99.90
8595;DHT22;4335;48.860;9.198;2023-08-17T12:31:58;29.70;99.90
8595;DHT22;4335;48.860;9.198;2023-08-17T12:34:25;29.70;99.90
8595;DHT22;4335;48.860;9.198;2023-08-17T12:36:53;29.70;99.90
8595;DHT22;4335;48.860;9.198;2023-08-17T12:39:28;29.60;99.90
8595;DHT22;4335;48.860;9.198;2023-08-17T12:41:58;29.60;99.90
8595;DHT22;4335;48.860;9.198;2023-08-17T12:44:34;29.40;99.90
8595;DHT22;4335;48.860;9.198;2023-08-17T12:47:01;29.30;99.90
8595;DHT22;4335;48.860;9.198;2023-08-17T12:49:32;29.20;99.90
8595;DHT22;4335;48.860;9.198;2023-08-17T12:51:59;29.00;99.90
8595;DHT22;4335;48.860;9.198;2023-08-17T12:54:29;28.90;99.90
8595;DHT22;4335;48.860;9.198;2023-08-17T12:56:57;28.80;99.90
8595;DHT22;4335;48.860;9.198;2023-08-17T12:59:26;28.70;99.90
8595;DHT22;4335;48.860;9.198;2023-08-17T13:01:53;28.50;99.90
8595;DHT22;4335;48.860;9.198;2023-08-17T13:04:24;28.50;99.90
8595;DHT22;4335;48.860;9.198;2023-08-17T13:06:51;28.40;99.90
8595;DHT22;4335;48.860;9.198;2023-08-17T13:09:19;28.40;99.90
8595;DHT22;4335;48.860;9.198;2023-08-17T13:11:46;28.20;99.90
8595;DHT22;4335;48.860;9.198;2023-08-17T13:14:17;28.00;99.90
8595;DHT22;4335;48.860;9.198;2023-08-17T13:16:55;28.00;99.90
8595;DHT22;4335;48.860;9.198;2023-08-17T13:19:25;27.70;99.90
8595;DHT22;4335;48.860;9.198;2023-08-17T13:21:55;27.60;99.90
8595;DHT22;4335;48.860;9.198;2023-08-17T13:24:23;27.40;99.90
8595;DHT22;4335;48.860;9.198;2023-08-17T13:26:53;27.30;99.90
8595;DHT22;4335;48.860;9.198;2023-08-17T13:29:26;27.20;99.90
8595;DHT22;4335;48.860;9.198;2023-08-17T13:31:58;26.90;99.90
8595;DHT22;4335;48.860;9.198;2023-08-17T13:34:25;26.80;99.90
8595;DHT22;4335;48.860;9.198;2023-08-17T13:36:55;26.60;99.90
8595;DHT22;4335;48.860;9.198;2023-08-17T13:39:23;26.50;99.90
8595;DHT22;4335;48.860;9.198;2023-08-17T13:41:57;26.40;99.90
8595;DHT22;4335;48.860;9.198;2023-08-17T13:44:25;26.20;99.90
8595;DHT22;4335;48.860;9.198;2023-08-17T13:46:57;26.20;99.90
8595;DHT22;4335;48.860;9.198;2023-08-17T13:49:27;26.10;99.90
8595;DHT22;4335;48.860;9.198;2023-08-17T13:51:55;26.00;99.90
8595;DHT22;4335;48.860;9.198;2023-08-17T13:54:23;25.80;99.90
8595;DHT22;4335;48.860;9.198;2023-08-17T13:56:50;25.70;99.90
8595;DHT22;4335;48.860;9.198;2023-08-17T13:59:35;25.60;99.90
8595;DHT22;4335;48.860;9.198;2023-08-17T14:02:04;25.50;99.90
8595;DHT22;4335;48.860;9.198;2023-08-17T14:04:34;25.50;99.90
8595;DHT22;4335;48.860;9.198;2023-08-17T14:07:02;25.40;99.90
8595;DHT22;4335;48.860;9.198;2023-08-17T14:09:32;25.30;99.90
8595;DHT22;4335;48.860;9.198;2023-08-17T14:12:03;25.30;99.90
8595;DHT22;4335;48.860;9.198;2023-08-17T14:14:34;25.20;99.90
8595;DHT22;4335;48.860;9.198;2023-08-17T14:17:05;25.20;99.90
8595;DHT22;4335;48.860;9.198;2023-08-17T14:19:33;25.20;99.90
8595;DHT22;4335;48.860;9.198;2023-08-17T14:22:00;25.10;99.90
8595;DHT22;4335;48.860;9.198;2023-08-17T14:24:30;25.20;99.90
8595;DHT22;4335;48.860;9.198;2023-08-17T14:27:01;25.20;99.90
8595;DHT22;4335;48.860;9.198;2023-08-17T14:29:31;25.20;99.90
8595;DHT22;4335;48.860;9.198;2023-08-17T14:31:59;25.20;99.90
8595;DHT22;4335;48.860;9.198;2023-08-17T14:34:28;25.20;99.90
8595;DHT22;4335;48.860;9.198;2023-08-17T14:37:01;25.20;99.90
8595;DHT22;4335;48.860;9.198;2023-08-17T14:39:31;25.20;99.90
8595;DHT22;4335;48.860;9.198;2023-08-17T14:41:59;25.20;99.90
8595;DHT22;4335;48.860;9.198;2023-08-17T14:44:32;25.20;99.90
8595;DHT22;4335;48.860;9.198;2023-08-17T14:47:00;25.30;99.90
8595;DHT22;4335;48.860;9.198;2023-08-17T14:49:29;25.30;99.90
8595;DHT22;4335;48.860;9.198;2023-08-17T14:51:56;25.30;99.90
8595;DHT22;4335;48.860;9.198;2023-08-17T14:54:23;25.40;99.90
8595;DHT22;4335;48.860;9.198;2023-08-17T14:56:51;25.50;99.90
8595;DHT22;4335;48.860;9.198;2023-08-17T14:59:18;25.50;99.90
8595;DHT22;4335;48.860;9.198;2023-08-17T15:01:46;25.50;99.90
8595;DHT22;4335;48.860;9.198;2023-08-17T15:04:17;25.50;99.90
8595;DHT22;4335;48.860;9.198;2023-08-17T15:06:46;25.50;99.90
8595;DHT22;4335;48.860;9.198;2023-08-17T15:09:14;25.50;99.90
8595;DHT22;4335;48.860;9.198;2023-08-17T15:11:41;25.60;99.90
8595;DHT22;4335;48.860;9.198;2023-08-17T15:14:14;25.50;99.90
8595;DHT22;4335;48.860;9.198;2023-08-17T15:16:45;25.50;99.90
8595;DHT22;4335;48.860;9.198;2023-08-17T15:19:12;25.50;99.90
8595;DHT22;4335;48.860;9.198;2023-08-17T15:21:47;25.50;99.90
8595;DHT22;4335;48.860;9.198;2023-08-17T15:24:17;25.60;99.90
8595;DHT22;4335;48.860;9.198;2023-08-17T15:26:47;25.60;99.90
8595;DHT22;4335;48.860;9.198;2023-08-17T15:29:14;25.60;99.90
8595;DHT22;4335;48.860;9.198;2023-08-17T15:31:42;25.60;99.90
8595;DHT22;4335;48.860;9.198;2023-08-17T15:34:09;25.60;99.90
8595;DHT22;4335;48.860;9.198;2023-08-17T15:36:36;25.70;99.90
8595;DHT22;4335;48.860;9.198;2023-08-17T15:39:11;25.70;99.90
8595;DHT22;4335;48.860;9.198;2023-08-17T15:41:45;25.70;99.90
8595;DHT22;4335;48.860;9.198;2023-08-17T15:44:12;25.80;99.90
8595;DHT22;4335;48.860;9.198;2023-08-17T15:46:46;25.70;99.90
8595;DHT22;4335;48.860;9.198;2023-08-17T15:49:13;25.80;99.90
8595;DHT22;4335;48.860;9.198;2023-08-17T15:51:40;25.90;99.90
8595;DHT22;4335;48.860;9.198;2023-08-17T15:54:11;25.90;99.90
8595;DHT22;4335;48.860;9.198;2023-08-17T15:56:45;25.90;99.90
8595;DHT22;4335;48.860;9.198;2023-08-17T15:59:12;26.00;99.90
8595;DHT22;4335;48.860;9.198;2023-08-17T16:01:39;25.90;99.90
8595;DHT22;4335;48.860;9.198;2023-08-17T16:04:07;26.00;99.90
8595;DHT22;4335;48.860;9.198;2023-08-17T16:06:34;26.00;99.90
8595;DHT22;4335;48.860;9.198;2023-08-17T16:09:08;26.00;99.90
8595;DHT22;4335;48.860;9.198;2023-08-17T16:11:40;26.00;99.90
8595;DHT22;4335;48.860;9.198;2023-08-17T16:14:13;26.00;99.90
8595;DHT22;4335;48.860;9.198;2023-08-17T16:16:46;26.00;99.90
8595;DHT22;4335;48.860;9.198;2023-08-17T16:19:13;26.00;99.90
8595;DHT22;4335;48.860;9.198;2023-08-17T16:21:40;26.00;99.90